Time;durP1;ratioP1;P1;durP2;ratioP2;P2;SDS_P1;SDS_P2;PMS_P1;PMS_P2;Temp;Humidity;BMP_temperature;BMP_pressure;BME280_temperature;BME280_humidity;BME280_pressure;Samples;Min_cycle;Max_cycle;Signal;HPM_P1;HPM_P2
2023/04/20 00:00:47;;;;;;;9.75;6.63;;;2.40;99.90;;;;;;5045033;28;20053;-91
2023/04/20 00:03:34;;;;;;;12.35;7.70;;;2.20;99.90;;;;;;5066572;28;20114;-90
2023/04/20 00:06:24;;;;;;;9.98;6.97;;;2.20;99.90;;;;;;5062119;28;20041;-89
2023/04/20 00:09:12;;;;;;;11.30;6.65;;;2.20;99.90;;;;;;5049070;28;20037;-93
2023/04/20 00:12:02;;;;;;;11.80;7.45;;;2.20;99.90;;;;;;5067239;28;20057;-91
2023/04/20 00:14:50;;;;;;;11.52;6.72;;;2.20;99.90;;;;;;5055032;28;20067;-90
2023/04/20 00:17:38;;;;;;;10.45;6.43;;;2.20;99.90;;;;;;5058779;28;20056;-91
2023/04/20 00:20:26;;;;;;;10.75;6.65;;;2.20;99.90;;;;;;5058884;28;20360;-91
2023/04/20 00:23:14;;;;;;;13.35;6.85;;;2.10;99.90;;;;;;5072604;28;20045;-91
2023/04/20 00:26:03;;;;;;;14.13;6.13;;;2.00;99.90;;;;;;5048766;28;20044;-91
2023/04/20 00:28:51;;;;;;;12.48;6.80;;;1.90;99.90;;;;;;5052303;28;20509;-92
2023/04/20 00:31:38;;;;;;;11.00;6.72;;;1.90;99.90;;;;;;5058330;28;20120;-90
2023/04/20 00:34:26;;;;;;;12.02;7.03;;;1.90;1.00;;;;;;5058872;28;20445;-91
2023/04/20 00:37:15;;;;;;;11.20;7.18;;;1.90;1.00;;;;;;5051339;28;20076;-94
2023/04/20 00:40:03;;;;;;;13.50;6.70;;;1.90;1.00;;;;;;5051439;28;20040;-92
2023/04/20 00:42:50;;;;;;;12.00;6.75;;;1.80;1.00;;;;;;5046597;28;20168;-92
2023/04/20 00:45:38;;;;;;;9.60;6.45;;;1.70;1.00;;;;;;5055809;28;20068;-91
2023/04/20 00:48:26;;;;;;;12.38;7.22;;;1.60;1.00;;;;;;5054803;28;20138;-92
2023/04/20 00:51:15;;;;;;;12.00;6.93;;;1.60;1.00;;;;;;5052427;28;20049;-92
2023/04/20 00:54:03;;;;;;;10.23;7.28;;;1.70;1.00;;;;;;5048694;28;20129;-92
2023/04/20 00:56:51;;;;;;;12.32;7.97;;;1.60;1.00;;;;;;5043077;28;20053;-91
2023/04/20 00:59:40;;;;;;;15.23;8.55;;;1.50;6.40;;;;;;5057371;28;20052;-91
2023/04/20 01:02:27;;;;;;;14.35;8.00;;;1.30;28.00;;;;;;5059342;28;20097;-90
2023/04/20 01:05:16;;;;;;;12.27;7.80;;;1.20;75.10;;;;;;5060510;28;20257;-91
2023/04/20 01:08:04;;;;;;;10.27;7.80;;;1.20;99.90;;;;;;5065164;28;20041;-91
2023/04/20 01:10:51;;;;;;;12.10;7.85;;;1.00;99.90;;;;;;5048836;28;20075;-91
2023/04/20 01:13:38;;;;;;;14.05;7.70;;;1.00;99.90;;;;;;5037297;28;20044;-92
2023/04/20 01:16:25;;;;;;;12.68;8.10;;;0.80;99.90;;;;;;5055736;28;20140;-90
2023/04/20 01:19:13;;;;;;;10.88;7.95;;;0.70;99.90;;;;;;5035411;28;20140;-92
2023/04/20 01:22:07;;;;;;;13.18;8.48;;;0.60;99.90;;;;;;5052174;28;20049;-91
2023/04/20 01:24:54;;;;;;;14.23;8.95;;;0.50;99.90;;;;;;5042173;28;20049;-91
2023/04/20 01:27:42;;;;;;;13.23;8.05;;;0.50;1.00;;;;;;5062803;28;20053;-91
2023/04/20 01:30:32;;;;;;;11.88;7.93;;;0.40;1.00;;;;;;5065421;28;20055;-91
2023/04/20 01:33:20;;;;;;;16.42;9.23;;;0.30;1.00;;;;;;5057484;28;20099;-90
2023/04/20 01:36:08;;;;;;;14.95;8.48;;;0.20;99.90;;;;;;5058084;28;20109;-90
2023/04/20 01:38:55;;;;;;;13.93;8.35;;;0.20;99.90;;;;;;5064400;28;20041;-91
2023/04/20 01:41:45;;;;;;;17.75;10.02;;;0.20;99.90;;;;;;5060380;28;20052;-90
2023/04/20 01:44:33;;;;;;;14.48;9.68;;;0.20;1.00;;;;;;5046647;28;20053;-91
2023/04/20 01:47:21;;;;;;;14.77;9.32;;;0.30;1.00;;;;;;5066907;28;20045;-88
2023/04/20 01:50:09;;;;;;;15.10;9.90;;;0.30;1.00;;;;;;5053694;28;20047;-90
2023/04/20 01:52:56;;;;;;;16.08;10.07;;;0.20;37.40;;;;;;5055564;28;20107;-90
2023/04/20 01:55:44;;;;;;;15.25;9.68;;;0.20;99.90;;;;;;5058276;28;20060;-91
2023/04/20 01:58:31;;;;;;;15.80;10.88;;;0.20;99.90;;;;;;5064438;28;20048;-90
2023/04/20 02:01:20;;;;;;;16.33;10.10;;;0.30;99.90;;;;;;5051223;28;20056;-91
2023/04/20 02:04:08;;;;;;;13.77;9.15;;;0.30;1.00;;;;;;5072748;28;20052;-90
2023/04/20 02:07:01;;;;;;;18.55;10.15;;;0.20;1.00;;;;;;5066428;28;20099;-91
2023/04/20 02:09:58;;;;;;;20.37;11.37;;;0.20;1.00;;;;;;5069837;28;20033;-91
2023/04/20 02:12:45;;;;;;;17.00;11.25;;;0.30;99.90;;;;;;5073602;28;20060;-91
2023/04/20 02:15:32;;;;;;;16.52;10.25;;;0.20;99.90;;;;;;5069949;28;20092;-88
2023/04/20 02:18:23;;;;;;;17.15;11.05;;;0.20;99.90;;;;;;5047010;28;20048;-88
2023/04/20 02:21:10;;;;;;;18.33;11.18;;;0.10;99.90;;;;;;5072853;28;20086;-89
2023/04/20 02:23:58;;;;;;;18.27;11.50;;;0.00;99.90;;;;;;5059986;28;20041;-90
2023/04/20 02:26:46;;;;;;;17.55;10.95;;;-0.10;99.90;;;;;;5049537;28;20060;-89
2023/04/20 02:29:33;;;;;;;16.75;10.85;;;-0.20;99.90;;;;;;5064600;28;20045;-91
2023/04/20 02:32:20;;;;;;;12.60;9.95;;;-0.30;99.90;;;;;;5059294;28;20051;-88
2023/04/20 02:35:11;;;;;;;17.58;10.35;;;-0.30;1.00;;;;;;5056283;28;20049;-91
2023/04/20 02:38:01;;;;;;;15.82;10.55;;;-0.30;8.70;;;;;;5086340;28;20056;-88
2023/04/20 02:40:48;;;;;;;17.58;11.10;;;-0.30;99.90;;;;;;5076561;28;20053;-87
2023/04/20 02:43:35;;;;;;;46.88;24.58;;;-0.40;99.90;;;;;;5068871;28;20089;-88
2023/04/20 02:46:23;;;;;;;54.45;29.15;;;-0.30;1.00;;;;;;5061648;28;20060;-86
2023/04/20 02:49:10;;;;;;;42.33;23.50;;;-0.30;99.90;;;;;;5074951;28;20146;-87
2023/04/20 02:51:57;;;;;;;38.92;22.90;;;-0.30;99.90;;;;;;5062075;28;20048;-88
2023/04/20 02:54:47;;;;;;;29.27;17.58;;;-0.30;99.90;;;;;;5071851;28;20072;-86
2023/04/20 02:57:34;;;;;;;29.40;17.77;;;-0.40;1.00;;;;;;5068855;28;20024;-89
2023/04/20 03:00:28;;;;;;;30.48;18.65;;;-0.40;1.00;;;;;;5066362;28;20091;-90
2023/04/20 03:03:18;;;;;;;28.63;16.85;;;-0.50;38.60;;;;;;5062984;28;20040;-90
2023/04/20 03:06:06;;;;;;;28.17;15.65;;;-0.50;1.00;;;;;;5069675;28;20049;-92
2023/04/20 03:08:56;;;;;;;29.88;16.60;;;-0.40;99.90;;;;;;5066799;28;20068;-90
2023/04/20 03:11:44;;;;;;;28.45;15.35;;;-0.50;99.90;;;;;;5059881;28;20063;-88
2023/04/20 03:14:31;;;;;;;29.15;15.20;;;-0.50;99.90;;;;;;5066672;28;20534;-91
2023/04/20 03:17:19;;;;;;;22.08;13.90;;;-0.50;1.00;;;;;;5065520;28;20047;-91
2023/04/20 03:20:07;;;;;;;22.25;13.82;;;-0.40;99.90;;;;;;5045937;28;20045;-91
2023/04/20 03:22:55;;;;;;;26.55;13.75;;;-0.50;99.90;;;;;;5064344;28;20105;-91
2023/04/20 03:25:43;;;;;;;25.13;13.07;;;-0.50;1.00;;;;;;5058811;28;20046;-90
2023/04/20 03:28:30;;;;;;;24.73;13.10;;;-0.50;1.00;;;;;;5062061;28;20041;-90
2023/04/20 03:31:20;;;;;;;19.55;13.15;;;-0.50;93.10;;;;;;5071112;28;20040;-90
2023/04/20 03:34:09;;;;;;;20.58;12.75;;;-0.60;74.50;;;;;;5046775;28;20068;-92
2023/04/20 03:36:56;;;;;;;22.23;12.98;;;-0.70;99.90;;;;;;5060225;28;20445;-90
2023/04/20 03:39:43;;;;;;;20.85;12.90;;;-0.80;99.90;;;;;;5070803;28;20076;-91
2023/04/20 03:42:32;;;;;;;23.42;13.15;;;-0.80;99.90;;;;;;5060123;28;20076;-91
2023/04/20 03:45:26;;;;;;;22.70;13.00;;;-0.80;99.90;;;;;;5060075;28;20055;-90
2023/04/20 03:48:14;;;;;;;22.83;13.18;;;-0.90;1.00;;;;;;5051968;28;20059;-90
2023/04/20 03:51:03;;;;;;;24.85;14.00;;;-0.90;1.00;;;;;;5053990;28;20110;-90
2023/04/20 03:53:56;;;;;;;21.65;12.73;;;-0.90;1.00;;;;;;5065231;28;20063;-92
2023/04/20 03:56:46;;;;;;;24.73;13.75;;;-0.90;16.40;;;;;;5045223;28;20056;-90
2023/04/20 03:59:33;;;;;;;22.23;12.95;;;-0.90;55.70;;;;;;5065515;28;20041;-90
2023/04/20 04:02:21;;;;;;;22.80;13.15;;;-0.90;99.90;;;;;;5062223;28;20048;-92
2023/04/20 04:05:24;;;;;;;22.67;14.65;;;-0.90;99.90;;;;;;5013090;28;20045;-91
2023/04/20 04:08:12;;;;;;;28.15;14.38;;;-0.80;99.90;;;;;;5044143;28;20500;-91
2023/04/20 04:11:00;;;;;;;20.92;13.52;;;-0.80;99.90;;;;;;5046106;28;20049;-90
2023/04/20 04:13:48;;;;;;;23.20;13.95;;;-0.80;99.90;;;;;;5049493;28;20378;-91
2023/04/20 04:16:37;;;;;;;24.88;15.25;;;-0.70;99.90;;;;;;5040483;28;20036;-92
2023/04/20 04:19:25;;;;;;;24.02;15.25;;;-0.70;99.90;;;;;;5058847;28;20041;-92
2023/04/20 04:22:14;;;;;;;26.70;15.52;;;-0.60;99.90;;;;;;5024802;28;20049;-92
2023/04/20 04:25:05;;;;;;;22.63;15.57;;;-0.50;99.90;;;;;;5026861;28;20045;-92
2023/04/20 04:27:54;;;;;;;28.73;16.73;;;-0.50;99.90;;;;;;5048085;28;20091;-92
2023/04/20 04:30:41;;;;;;;29.65;18.75;;;-0.30;99.90;;;;;;5056907;28;20045;-90
2023/04/20 04:33:28;;;;;;;35.28;20.65;;;-0.10;99.90;;;;;;5063402;28;20041;-90
2023/04/20 04:36:16;;;;;;;39.08;21.38;;;-0.10;99.90;;;;;;5058534;28;20048;-90
2023/04/20 04:39:06;;;;;;;35.20;20.25;;;0.00;99.90;;;;;;5057120;28;20053;-89
2023/04/20 04:41:54;;;;;;;37.72;19.63;;;-0.10;99.90;;;;;;5061594;28;20116;-89
2023/04/20 04:44:42;;;;;;;33.65;18.77;;;-0.20;99.90;;;;;;5057584;28;20049;-88
2023/04/20 04:47:36;;;;;;;36.58;19.25;;;-0.30;99.90;;;;;;5045880;28;20041;-89
2023/04/20 04:50:27;;;;;;;31.98;19.30;;;-0.20;99.90;;;;;;5050580;28;20041;-89
2023/04/20 04:53:15;;;;;;;29.23;18.23;;;-0.20;99.90;;;;;;5053357;28;20145;-90
2023/04/20 04:56:05;;;;;;;31.85;19.80;;;-0.10;99.90;;;;;;5050978;28;20092;-91
2023/04/20 04:58:55;;;;;;;33.60;19.23;;;0.10;99.90;;;;;;5061020;28;20059;-92
2023/04/20 05:01:42;;;;;;;33.35;18.02;;;0.20;99.90;;;;;;5054340;28;20045;-91
2023/04/20 05:04:35;;;;;;;27.63;17.83;;;0.20;99.90;;;;;;5040111;28;20049;-92
2023/04/20 05:07:55;;;;;;;;;;;;;;;;;;;;;
2023/04/20 05:10:56;;;;;;;37.25;20.55;;;0.30;99.90;;;;;;5029898;28;20041;-94
2023/04/20 05:14:20;;;;;;;;;;;;;;;;;;;;;
2023/04/20 05:17:51;;;;;;;;;;;;;;;;;;;;;
2023/04/20 05:25:31;;;;;;;36.72;21.25;;;0.60;99.90;;;;;;4997019;28;20035;-93
2023/04/20 05:32:09;;;;;;;37.70;20.13;;;0.80;99.90;;;;;;4992062;28;20050;-89
2023/04/20 05:34:59;;;;;;;31.70;19.33;;;1.00;99.90;;;;;;5003289;28;20053;-88
2023/04/20 05:38:31;;;;;;;28.58;16.73;;;1.10;99.90;;;;;;5026494;28;20130;-92
2023/04/20 05:41:35;;;;;;;29.55;17.40;;;1.30;99.90;;;;;;5060907;28;20052;-92
2023/04/20 05:44:28;;;;;;;28.85;15.88;;;1.50;99.90;;;;;;5046070;28;20509;-92
2023/04/20 05:47:28;;;;;;;;;;;;;;;;;;;;;
2023/04/20 05:54:37;;;;;;;29.20;13.27;;;2.10;99.90;;;;;;5053764;28;20041;-91
2023/04/20 06:14:29;;;;;;;26.65;14.05;;;2.80;1.00;;;;;;5016687;28;20038;-92
2023/04/20 06:17:39;;;;;;;30.92;12.32;;;3.10;99.90;;;;;;5042427;28;20076;-90
2023/04/20 06:20:39;;;;;;;;;;;3.30;99.90;;;;;;5055960;28;20390;-90
2023/04/20 06:23:29;;;;;;;13.18;9.82;;;3.30;1.00;;;;;;5029893;28;19947;-90
2023/04/20 06:26:16;;;;;;;19.17;11.07;;;3.40;99.90;;;;;;5054008;28;20041;-90
2023/04/20 06:29:35;;;;;;;15.70;10.40;;;3.50;1.00;;;;;;5047678;28;20045;-93
2023/04/20 06:32:24;;;;;;;18.15;10.32;;;3.60;99.90;;;;;;5051419;28;20331;-90
2023/04/20 06:35:20;;;;;;;17.58;10.15;;;3.50;1.00;;;;;;5054520;28;20114;-90
2023/04/20 06:38:08;;;;;;;17.80;11.60;;;3.30;99.90;;;;;;5037582;28;20052;-91
2023/04/20 06:41:06;;;;;;;;;;;;;;;;;;;;;
2023/04/20 06:43:55;;;;;;;22.95;10.50;;;3.50;99.90;;;;;;5054837;28;20065;-92
2023/04/20 06:55:08;;;;;;;15.63;9.00;;;4.70;99.90;;;;;;4962187;28;20049;-91
2023/04/20 06:58:19;;;;;;;15.20;8.85;;;5.10;99.90;;;;;;5054690;28;20037;-91
2023/04/20 07:01:49;;;;;;;12.25;8.65;;;5.50;92.40;;;;;;5052789;28;20048;-90
2023/04/20 07:05:16;;;;;;;12.95;9.30;;;5.90;1.00;;;;;;5046401;28;20113;-91
2023/04/20 07:08:23;;;;;;;12.90;8.80;;;6.00;99.90;;;;;;5059989;28;20048;-90
2023/04/20 07:11:11;;;;;;;12.48;8.30;;;6.00;99.90;;;;;;5051171;28;20045;-89
2023/04/20 07:13:59;;;;;;;17.88;10.15;;;6.20;99.90;;;;;;5053562;28;20044;-89
2023/04/20 07:16:46;;;;;;;12.98;9.30;;;6.00;99.90;;;;;;5058815;28;20436;-90
2023/04/20 07:19:35;;;;;;;12.50;8.40;;;6.20;99.90;;;;;;5048387;28;20033;-89
2023/04/20 07:22:37;;;;;;;11.63;9.45;;;6.60;99.90;;;;;;5052906;28;20121;-90
2023/04/20 07:25:26;;;;;;;16.77;9.90;;;7.00;99.90;;;;;;5057186;28;20033;-90
2023/04/20 07:28:33;;;;;;;16.60;9.43;;;7.00;98.10;;;;;;5042425;28;20525;-90
2023/04/20 07:31:31;;;;;;;18.13;10.35;;;6.50;28.70;;;;;;5052489;28;20509;-89
2023/04/20 07:34:21;;;;;;;13.25;9.43;;;6.40;40.90;;;;;;5053452;28;20065;-89
2023/04/20 07:37:19;;;;;;;;;;;;;;;;;;;;;
2023/04/20 07:40:22;;;;;;;15.65;10.18;;;6.50;19.80;;;;;;5059699;28;20037;-90
2023/04/20 07:43:44;;;;;;;18.45;10.18;;;6.50;4.10;;;;;;5056737;28;20041;-90
2023/04/20 07:47:45;;;;;;;;;;;;;;;;;;;;;
2023/04/20 07:50:38;;;;;;;17.38;11.38;;;6.10;25.10;;;;;;5054846;28;20040;-92
2023/04/20 07:53:38;;;;;;;;;;;;;;;;;;;;;
2023/04/20 07:56:29;;;;;;;19.02;11.15;;;5.90;31.30;;;;;;5053359;28;20061;-88
2023/04/20 07:59:16;;;;;;;18.75;11.50;;;5.80;21.50;;;;;;5047584;28;20057;-89
2023/04/20 08:06:36;;;;;;;18.42;11.48;;;5.90;52.70;;;;;;5063922;28;20040;-91
2023/04/20 08:09:25;;;;;;;16.33;11.48;;;5.80;57.60;;;;;;5042856;28;20048;-91
2023/04/20 08:12:12;;;;;;;18.45;12.23;;;5.40;77.70;;;;;;5045890;28;20072;-88
2023/04/20 08:15:08;;;;;;;19.30;13.02;;;5.20;90.10;;;;;;5052659;28;20049;-89
2023/04/20 08:17:58;;;;;;;21.75;14.02;;;5.10;99.90;;;;;;5054978;28;20049;-91
2023/04/20 08:20:46;;;;;;;18.75;12.82;;;5.00;99.90;;;;;;5055219;28;20055;-90
2023/04/20 08:23:36;;;;;;;20.73;13.23;;;4.90;99.90;;;;;;5052894;28;20131;-91
2023/04/20 08:26:32;;;;;;;26.52;13.77;;;4.90;99.90;;;;;;5039662;28;20358;-90
2023/04/20 08:29:23;;;;;;;19.17;13.45;;;4.70;99.90;;;;;;5055211;28;20069;-90
2023/04/20 08:32:14;;;;;;;18.98;14.02;;;4.50;99.90;;;;;;5046922;28;20081;-91
2023/04/20 08:48:31;;;;;;;25.42;15.63;;;4.20;1.00;;;;;;5014842;28;20034;-90
2023/04/20 08:51:33;;;;;;;23.63;15.15;;;4.20;1.00;;;;;;5021301;28;20126;-92
2023/04/20 08:55:19;;;;;;;23.92;15.57;;;4.20;1.00;;;;;;5020680;28;20113;-92
2023/04/20 08:58:10;;;;;;;26.08;16.77;;;4.20;35.70;;;;;;4941262;28;20067;-92
2023/04/20 09:13:58;;;;;;;29.45;16.48;;;4.40;99.90;;;;;;4904882;29;20106;-92
2023/04/20 09:25:37;;;;;;;23.50;14.38;;;4.80;99.90;;;;;;4907116;29;20035;-91
2023/04/20 09:29:30;;;;;;;;;;;;;;;;;;;;;
2023/04/20 09:32:55;;;;;;;22.88;13.10;;;5.00;99.90;;;;;;4924659;28;20031;-87
2023/04/20 09:36:04;;;;;;;18.75;13.00;;;5.00;99.90;;;;;;4957350;28;20037;-86
2023/04/20 09:43:17;;;;;;;17.02;11.38;;;5.10;99.90;;;;;;5039660;28;20044;-92
2023/04/20 09:46:56;;;;;;;15.38;11.40;;;5.20;99.90;;;;;;5090968;28;20055;-93
2023/04/20 09:55:01;;;;;;;17.00;11.35;;;5.30;99.90;;;;;;4958538;29;20027;-91
2023/04/20 09:57:52;;;;;;;18.40;12.10;;;5.40;99.90;;;;;;4948313;28;20055;-91
2023/04/20 10:02:02;;;;;;;16.70;12.25;;;5.40;99.90;;;;;;4982580;28;20054;-94
2023/04/20 10:05:34;;;;;;;17.58;12.00;;;5.50;97.00;;;;;;4972418;28;20067;-93
2023/04/20 10:08:23;;;;;;;20.52;12.48;;;5.70;66.90;;;;;;5049860;28;20056;-90
2023/04/20 10:11:23;;;;;;;15.57;12.02;;;5.70;1.00;;;;;;5056057;28;20055;-89
2023/04/20 10:14:26;;;;;;;20.50;12.52;;;5.70;1.00;;;;;;5041053;28;20445;-90
2023/04/20 10:17:16;;;;;;;20.83;12.35;;;5.50;1.00;;;;;;5058205;28;20037;-89
2023/04/20 10:20:28;;;;;;;18.25;12.52;;;5.60;1.00;;;;;;5037725;28;20473;-89
2023/04/20 10:23:18;;;;;;;17.02;12.00;;;5.60;1.00;;;;;;5042329;28;20052;-91
2023/04/20 10:26:13;;;;;;;18.73;13.25;;;5.60;1.00;;;;;;5055028;28;20033;-92
2023/04/20 10:29:25;;;;;;;15.77;11.82;;;5.50;1.00;;;;;;5034815;28;20049;-91
2023/04/20 10:32:32;;;;;;;17.57;9.90;;;5.70;1.00;;;;;;5060570;28;20047;-91
2023/04/20 10:35:28;;;;;;;21.25;13.98;;;5.80;1.00;;;;;;5057293;28;20049;-90
2023/04/20 10:39:05;;;;;;;14.25;10.98;;;6.10;1.00;;;;;;5039067;28;20045;-91
2023/04/20 10:42:28;;;;;;;13.40;10.80;;;6.30;1.00;;;;;;5051099;28;20061;-91
2023/04/20 10:45:41;;;;;;;17.70;11.98;;;6.30;1.00;;;;;;5047524;28;20132;-90
2023/04/20 10:48:34;;;;;;;19.05;12.95;;;6.30;1.00;;;;;;5054441;28;20045;-90
2023/04/20 10:51:29;;;;;;;15.57;12.15;;;6.00;18.60;;;;;;5053176;28;20072;-89
2023/04/20 10:54:21;;;;;;;19.52;12.60;;;5.70;56.60;;;;;;5056076;28;20050;-91
2023/04/20 10:57:15;;;;;;;16.97;12.93;;;5.50;99.90;;;;;;5052968;28;20565;-91
2023/04/20 11:00:27;;;;;;;18.15;14.18;;;5.50;99.90;;;;;;5049249;28;20049;-91
2023/04/20 11:03:17;;;;;;;18.10;12.82;;;5.60;1.00;;;;;;5056040;28;20041;-92
2023/04/20 11:07:17;;;;;;;18.58;12.93;;;5.80;8.60;;;;;;4989269;28;20173;-90
2023/04/20 11:10:05;;;;;;;18.05;12.57;;;5.90;99.90;;;;;;4975345;28;20078;-91
2023/04/20 11:12:57;;;;;;;18.70;12.77;;;5.80;99.90;;;;;;4982031;28;20147;-89
2023/04/20 11:15:45;;;;;;;16.02;11.55;;;6.00;99.90;;;;;;4987170;28;20387;-89
2023/04/20 11:18:37;;;;;;;15.88;10.70;;;5.90;99.90;;;;;;4988991;28;20108;-87
2023/04/20 11:21:39;;;;;;;13.57;11.02;;;5.70;99.90;;;;;;4994343;28;20054;-92
2023/04/20 11:24:29;;;;;;;18.00;12.30;;;5.60;99.90;;;;;;4995502;28;20058;-92
2023/04/20 11:27:21;;;;;;;17.67;12.27;;;5.70;1.00;;;;;;4995788;28;20062;-89
2023/04/20 11:30:09;;;;;;;19.13;12.57;;;5.60;23.40;;;;;;5038778;28;20055;-90
2023/04/20 11:33:00;;;;;;;18.17;13.47;;;5.70;99.90;;;;;;5049971;28;20045;-87
2023/04/20 11:35:47;;;;;;;17.55;13.45;;;5.70;99.90;;;;;;5042597;28;20056;-88
2023/04/20 11:38:35;;;;;;;15.65;12.50;;;5.60;99.90;;;;;;5052570;28;20102;-87
2023/04/20 11:41:22;;;;;;;17.40;12.98;;;5.60;1.00;;;;;;5052902;28;20045;-88
2023/04/20 11:44:13;;;;;;;16.98;12.80;;;5.50;1.00;;;;;;5033964;28;20161;-89
2023/04/20 11:47:03;;;;;;;16.95;12.32;;;5.40;99.90;;;;;;5056044;28;20056;-89
2023/04/20 11:50:11;;;;;;;19.70;13.80;;;5.40;99.90;;;;;;4994327;28;20088;-88
2023/04/20 11:52:58;;;;;;;20.42;15.18;;;5.30;49.30;;;;;;4994459;28;20596;-88
2023/04/20 11:55:54;;;;;;;25.52;15.65;;;5.20;99.90;;;;;;4982529;28;20124;-89
2023/04/20 11:59:15;;;;;;;23.45;16.25;;;5.20;1.00;;;;;;4991624;28;20050;-89
2023/04/20 12:02:11;;;;;;;22.80;15.57;;;5.20;1.00;;;;;;4989408;28;20498;-85
2023/04/20 12:05:04;;;;;;;28.02;19.73;;;5.10;99.90;;;;;;4979103;28;20050;-88
2023/04/20 12:07:51;;;;;;;32.85;19.27;;;5.10;66.30;;;;;;4976933;28;20098;-87
2023/04/20 12:11:21;;;;;;;;;;;;;;;;;;;;;
2023/04/20 12:14:26;;;;;;;26.27;18.73;;;5.10;99.90;;;;;;4970639;28;20038;-87
2023/04/20 12:21:41;;;;;;;29.98;18.83;;;5.20;99.90;;;;;;4988689;28;20026;-88
2023/04/20 12:24:41;;;;;;;;;;;;;;;;;;;;;
2023/04/20 12:27:29;;;;;;;30.27;20.13;;;5.60;99.90;;;;;;5014094;28;20422;-89
2023/04/20 12:45:47;;;;;;;30.58;20.35;;;5.90;99.90;;;;;;4990168;28;20082;-86
2023/04/20 12:48:45;;;;;;;30.17;20.58;;;6.00;99.90;;;;;;4983543;28;20047;-86
2023/04/20 12:51:59;;;;;;;31.10;21.20;;;6.00;99.90;;;;;;5022191;28;20110;-87
2023/04/20 12:54:46;;;;;;;29.20;19.63;;;6.10;99.90;;;;;;5040659;28;20140;-87
2023/04/20 12:57:37;;;;;;;31.38;20.38;;;6.20;99.90;;;;;;5046126;28;20059;-87
2023/04/20 13:00:45;;;;;;;27.40;19.08;;;6.30;99.90;;;;;;5059150;28;20056;-86
2023/04/20 13:03:32;;;;;;;30.73;17.98;;;6.40;99.90;;;;;;5037478;28;20052;-86
2023/04/20 13:06:54;;;;;;;26.88;18.90;;;6.40;99.90;;;;;;5044661;28;20398;-88
2023/04/20 13:09:45;;;;;;;32.33;21.63;;;6.30;99.90;;;;;;5027100;28;20057;-86
2023/04/20 13:13:10;;;;;;;30.00;20.08;;;6.30;99.90;;;;;;5045814;28;20187;-88
2023/04/20 13:16:41;;;;;;;28.13;19.15;;;6.10;92.40;;;;;;5050800;28;20048;-92
2023/04/20 13:19:52;;;;;;;29.05;19.92;;;6.10;99.90;;;;;;5044428;28;20041;-90
2023/04/20 13:22:59;;;;;;;;;;;;;;;;;;;;;
2023/04/20 13:30:06;;;;;;;26.92;17.85;;;6.10;1.00;;;;;;4968930;28;20042;-88
2023/04/20 13:32:56;;;;;;;24.38;17.33;;;6.10;1.00;;;;;;4985925;28;20039;-88
2023/04/20 13:35:51;;;;;;;24.85;16.70;;;6.00;99.90;;;;;;4985606;28;20137;-90
2023/04/20 13:39:11;;;;;;;25.65;18.38;;;5.90;99.90;;;;;;4992835;28;20047;-90
2023/04/20 13:41:59;;;;;;;24.70;17.88;;;5.90;99.90;;;;;;5037083;28;20046;-91
2023/04/20 13:45:04;;;;;;;26.42;19.25;;;5.90;2.00;;;;;;5058410;28;20062;-85
2023/04/20 13:48:05;;;;;;;24.40;18.30;;;6.00;99.90;;;;;;5068704;28;20071;-90
2023/04/20 13:55:20;;;;;;;26.20;17.95;;;5.90;99.90;;;;;;5062126;28;20049;-91
2023/04/20 14:11:35;;;;;;;;;;;5.70;99.90;;;;;;4928663;28;20023;-88
2023/04/20 14:18:41;;;;;;;24.45;16.77;;;5.70;99.90;;;;;;4978557;28;20030;-91
2023/04/20 14:21:43;;;;;;;23.55;16.52;;;5.70;99.90;;;;;;4966294;28;20460;-90
2023/04/20 14:24:33;;;;;;;24.85;17.73;;;5.70;99.90;;;;;;5035872;28;20127;-86
2023/04/20 14:28:03;;;;;;;22.88;17.15;;;5.60;1.00;;;;;;5041731;28;20091;-87
2023/04/20 14:31:17;;;;;;;21.58;16.15;;;5.60;23.60;;;;;;5054472;28;20053;-87
2023/04/20 14:34:13;;;;;;;25.88;18.52;;;5.50;99.90;;;;;;5052396;28;20064;-89
2023/04/20 14:37:00;;;;;;;25.30;19.27;;;5.50;1.00;;;;;;5053884;28;20366;-92
2023/04/20 14:40:21;;;;;;;27.05;19.17;;;5.40;99.90;;;;;;5050661;28;20813;-90
2023/04/20 14:43:21;;;;;;;;;;;;;;;;;;;;;
2023/04/20 14:47:04;;;;;;;26.48;18.02;;;5.50;99.90;;;;;;5050868;28;20037;-90
2023/04/20 14:50:18;;;;;;;27.00;18.05;;;5.50;1.00;;;;;;5054206;28;20048;-88
2023/04/20 14:53:31;;;;;;;26.10;19.13;;;5.40;42.20;;;;;;5052093;28;20386;-89
2023/04/20 14:56:22;;;;;;;27.17;19.20;;;5.30;99.90;;;;;;5058798;28;20044;-87
2023/04/20 14:59:16;;;;;;;27.45;19.90;;;5.30;99.90;;;;;;5055650;28;20048;-88
2023/04/20 15:02:04;;;;;;;27.63;19.65;;;5.30;99.90;;;;;;5037765;28;20164;-89
2023/04/20 15:04:52;;;;;;;31.63;22.23;;;5.30;99.90;;;;;;5048514;28;20059;-90
2023/04/20 15:07:44;;;;;;;31.63;20.95;;;5.40;99.90;;;;;;5053320;28;20040;-91
2023/04/20 15:10:35;;;;;;;28.08;20.75;;;5.30;99.90;;;;;;5052646;28;20462;-90
2023/04/20 15:13:27;;;;;;;30.27;21.50;;;5.30;99.90;;;;;;5057095;28;20071;-90
2023/04/20 15:16:50;;;;;;;32.33;22.20;;;5.30;99.90;;;;;;4979088;28;20051;-91
2023/04/20 15:20:03;;;;;;;32.38;21.08;;;5.40;99.90;;;;;;4989915;28;20094;-90
2023/04/20 15:22:57;;;;;;;30.80;22.52;;;5.40;99.90;;;;;;4980632;28;20304;-87
2023/04/20 15:25:46;;;;;;;30.40;22.17;;;5.30;99.90;;;;;;4982335;28;20038;-90
2023/04/20 15:28:40;;;;;;;30.50;22.23;;;5.30;99.90;;;;;;4992556;28;20181;-87
2023/04/20 15:31:28;;;;;;;31.58;23.08;;;5.30;99.90;;;;;;5053809;28;20037;-87
2023/04/20 15:34:22;;;;;;;31.38;22.30;;;5.30;99.90;;;;;;5067485;28;20037;-88
2023/04/20 15:37:14;;;;;;;34.00;22.88;;;5.30;99.90;;;;;;5067237;28;20494;-90
2023/04/20 15:40:01;;;;;;;31.52;22.88;;;5.30;99.90;;;;;;5061123;28;20037;-89
2023/04/20 15:43:02;;;;;;;;;;;;;;;;;;;;;
2023/04/20 15:45:56;;;;;;;32.83;24.08;;;5.30;99.90;;;;;;5075018;28;20037;-88
2023/04/20 15:48:49;;;;;;;33.05;23.92;;;5.30;99.90;;;;;;5063506;28;20048;-90
2023/04/20 15:51:43;;;;;;;32.20;24.02;;;5.40;99.90;;;;;;5053768;28;20045;-87
2023/04/20 15:54:32;;;;;;;33.05;23.63;;;5.40;99.90;;;;;;5045238;28;20045;-88
2023/04/20 15:57:20;;;;;;;46.83;29.52;;;5.40;99.90;;;;;;5038826;28;20061;-87
2023/04/20 16:00:13;;;;;;;37.33;25.50;;;5.40;99.90;;;;;;5056917;28;20037;-90
2023/04/20 16:03:01;;;;;;;34.17;23.05;;;5.40;99.90;;;;;;5038295;28;20132;-89
2023/04/20 16:05:49;;;;;;;31.00;22.45;;;5.40;99.90;;;;;;5053701;28;20060;-90
2023/04/20 16:08:37;;;;;;;31.15;23.38;;;5.40;99.90;;;;;;5038214;28;20041;-90
2023/04/20 16:11:25;;;;;;;31.17;23.30;;;5.40;99.90;;;;;;5040650;28;20045;-91
2023/04/20 16:14:15;;;;;;;33.25;25.80;;;5.40;99.90;;;;;;5057116;28;20053;-90
2023/04/20 16:17:03;;;;;;;33.92;24.77;;;5.30;99.90;;;;;;5059562;28;20123;-88
2023/04/20 16:19:50;;;;;;;33.30;24.67;;;5.30;99.90;;;;;;5058308;28;20060;-89
2023/04/20 16:22:40;;;;;;;34.22;24.38;;;5.30;99.90;;;;;;5061968;28;20067;-89
2023/04/20 16:25:28;;;;;;;32.30;23.48;;;5.30;99.90;;;;;;5058127;28;20033;-90
2023/04/20 16:28:15;;;;;;;35.78;25.55;;;5.30;99.90;;;;;;5039260;28;20044;-91
2023/04/20 16:31:05;;;;;;;34.40;24.20;;;5.30;99.90;;;;;;5055817;28;20072;-90
2023/04/20 16:33:52;;;;;;;34.90;23.67;;;5.20;99.90;;;;;;5056401;28;20044;-90
2023/04/20 16:36:40;;;;;;;34.70;25.23;;;5.20;99.90;;;;;;5051950;28;20606;-90
2023/04/20 16:39:32;;;;;;;38.25;26.65;;;5.30;99.90;;;;;;5052558;28;20426;-88
2023/04/20 16:42:20;;;;;;;37.78;25.88;;;5.20;99.90;;;;;;5056810;28;20052;-90
2023/04/20 16:45:10;;;;;;;40.35;29.23;;;5.20;99.90;;;;;;5037331;28;20037;-90
2023/04/20 16:47:57;;;;;;;43.58;31.05;;;5.20;99.90;;;;;;5052899;28;20041;-89
2023/04/20 16:50:45;;;;;;;42.40;30.48;;;5.20;99.90;;;;;;5056949;28;20060;-89
2023/04/20 16:53:32;;;;;;;45.85;30.80;;;5.20;99.90;;;;;;5051631;28;20042;-89
2023/04/20 16:56:21;;;;;;;43.03;30.98;;;5.10;99.90;;;;;;5042043;28;20056;-90
2023/04/20 16:59:11;;;;;;;49.22;32.92;;;5.10;99.90;;;;;;5069102;28;20049;-89
2023/04/20 17:01:58;;;;;;;51.40;34.08;;;5.10;99.90;;;;;;5056579;28;20359;-87
2023/04/20 17:04:45;;;;;;;49.10;33.70;;;5.10;99.90;;;;;;5047516;28;20123;-88
2023/04/20 17:07:35;;;;;;;48.92;33.33;;;5.10;99.90;;;;;;5070612;28;20040;-91
2023/04/20 17:10:26;;;;;;;49.63;32.67;;;5.10;99.90;;;;;;5044301;28;20159;-89
2023/04/20 17:13:14;;;;;;;50.08;34.03;;;5.10;99.90;;;;;;5053850;28;20056;-86
2023/04/20 17:16:01;;;;;;;50.83;34.00;;;5.10;99.90;;;;;;5047672;28;20114;-88
2023/04/20 17:18:50;;;;;;;49.67;34.55;;;5.10;99.90;;;;;;5051025;28;20473;-88
2023/04/20 17:21:39;;;;;;;55.03;35.00;;;5.10;99.90;;;;;;5057854;28;20037;-88
2023/04/20 17:24:27;;;;;;;58.97;37.95;;;5.10;99.90;;;;;;5050560;28;20473;-89
2023/04/20 17:27:14;;;;;;;51.78;35.55;;;5.10;99.90;;;;;;5039274;28;20045;-86
2023/04/20 17:30:02;;;;;;;50.17;33.63;;;5.20;99.90;;;;;;5038603;28;20049;-86
2023/04/20 17:32:52;;;;;;;50.95;33.80;;;5.10;99.90;;;;;;5054747;28;20041;-86
2023/04/20 17:35:42;;;;;;;51.05;34.45;;;5.10;99.90;;;;;;5057401;28;20050;-88